Terminal Aerodrome Forecast
Issued by NWS

Home | Current Version | Previous Version | Text Only | Print | Product List | Glossary On
Versions: 1 2 3 4 5 6 7 8 9 10 11 12 13
000
FTUS42 KFFC 041726
TAFPDK
TAF
KPDK 041726Z 0418/0518 17005KT P6SM BKN070
     FM042000 16005KT P6SM SCT070
     FM050200 00000KT P6SM FEW080
     FM051200 10003KT P6SM FEW250
     FM051700 13007KT P6SM SCT060=

USA.gov is the U.S. government's official web portal to all federal, state and local government web resources and services.